sensor_id;sensor_type;location;lat;lon;timestamp;pressure;altitude;pressure_sealevel;temperature;humidity
6853;BME280;3465;42.144;24.722;2024-01-30T00:01:54;101937.84;;;2.34;50.96
6853;BME280;3465;42.144;24.722;2024-01-30T00:04:20;101940.34;;;2.27;51.11
6853;BME280;3465;42.144;24.722;2024-01-30T00:06:45;101936.91;;;2.25;51.79
6853;BME280;3465;42.144;24.722;2024-01-30T00:09:11;101938.66;;;2.32;51.47
6853;BME280;3465;42.144;24.722;2024-01-30T00:11:37;101936.13;;;2.38;51.55
6853;BME280;3465;42.144;24.722;2024-01-30T00:14:04;101938.75;;;2.39;51.08
6853;BME280;3465;42.144;24.722;2024-01-30T00:16:29;101927.53;;;2.30;50.60
6853;BME280;3465;42.144;24.722;2024-01-30T00:18:55;101938.69;;;2.38;50.62
6853;BME280;3465;42.144;24.722;2024-01-30T00:21:20;101945.59;;;2.43;50.22
6853;BME280;3465;42.144;24.722;2024-01-30T00:23:46;101941.34;;;2.48;50.41
6853;BME280;3465;42.144;24.722;2024-01-30T00:26:12;101949.00;;;2.41;50.58
6853;BME280;3465;42.144;24.722;2024-01-30T00:28:38;101931.88;;;2.35;51.05
6853;BME280;3465;42.144;24.722;2024-01-30T00:31:04;101929.28;;;2.32;51.24
6853;BME280;3465;42.144;24.722;2024-01-30T00:33:30;101935.34;;;2.43;50.91
6853;BME280;3465;42.144;24.722;2024-01-30T00:35:56;101941.31;;;2.39;51.27
6853;BME280;3465;42.144;24.722;2024-01-30T00:38:22;101931.84;;;2.29;50.75
6853;BME280;3465;42.144;24.722;2024-01-30T00:40:48;101946.38;;;2.33;51.04
6853;BME280;3465;42.144;24.722;2024-01-30T00:43:13;101942.09;;;2.32;51.53
6853;BME280;3465;42.144;24.722;2024-01-30T00:45:39;101935.31;;;2.40;50.87
6853;BME280;3465;42.144;24.722;2024-01-30T00:48:05;101945.59;;;2.43;50.54
6853;BME280;3465;42.144;24.722;2024-01-30T00:50:30;101952.41;;;2.40;51.35
6853;BME280;3465;42.144;24.722;2024-01-30T00:52:56;101924.09;;;2.23;51.09
6853;BME280;3465;42.144;24.722;2024-01-30T00:55:21;101954.09;;;2.33;51.44
6853;BME280;3465;42.144;24.722;2024-01-30T00:57:46;101940.47;;;2.45;51.47
6853;BME280;3465;42.144;24.722;2024-01-30T01:00:13;101942.09;;;2.32;51.89
6853;BME280;3465;42.144;24.722;2024-01-30T01:02:42;101943.78;;;2.30;51.92
6853;BME280;3465;42.144;24.722;2024-01-30T01:05:07;101940.34;;;2.27;52.23
6853;BME280;3465;42.144;24.722;2024-01-30T01:07:33;101945.47;;;2.27;51.95
6853;BME280;3465;42.144;24.722;2024-01-30T01:09:59;101940.41;;;2.33;52.10
6853;BME280;3465;42.144;24.722;2024-01-30T01:12:24;101936.88;;;2.20;52.25
6853;BME280;3465;42.144;24.722;2024-01-30T01:14:50;101949.75;;;2.25;52.75
6853;BME280;3465;42.144;24.722;2024-01-30T01:17:15;101941.09;;;2.11;53.09
6853;BME280;3465;42.144;24.722;2024-01-30T01:19:41;101929.81;;;1.92;54.19
6853;BME280;3465;42.144;24.722;2024-01-30T01:22:07;101932.31;;;1.85;54.61
6853;BME280;3465;42.144;24.722;2024-01-30T01:24:32;101942.78;;;1.22;55.84
6853;BME280;3465;42.144;24.722;2024-01-30T01:27:00;101923.25;;;1.28;55.97
6853;BME280;3465;42.144;24.722;2024-01-30T01:29:26;101927.28;;;1.11;56.25
6853;BME280;3465;42.144;24.722;2024-01-30T01:31:57;101930.66;;;1.06;56.44
6853;BME280;3465;42.144;24.722;2024-01-30T01:34:23;101924.56;;;0.96;56.86
6853;BME280;3465;42.144;24.722;2024-01-30T01:36:50;101932.13;;;0.87;57.25
6853;BME280;3465;42.144;24.722;2024-01-30T01:39:16;101937.59;;;0.48;59.32
6853;BME280;3465;42.144;24.722;2024-01-30T01:41:41;101925.19;;;0.19;60.28
6853;BME280;3465;42.144;24.722;2024-01-30T01:44:08;101929.91;;;-0.06;61.49
6853;BME280;3465;42.144;24.722;2024-01-30T01:46:34;101936.75;;;-0.05;61.89
6853;BME280;3465;42.144;24.722;2024-01-30T01:49:03;101936.25;;;0.18;61.09
6853;BME280;3465;42.144;24.722;2024-01-30T01:51:31;101930.16;;;0.08;61.18
6853;BME280;3465;42.144;24.722;2024-01-30T01:53:58;101924.06;;;0.00;61.66
6853;BME280;3465;42.144;24.722;2024-01-30T01:56:26;101929.47;;;0.18;61.09
6853;BME280;3465;42.144;24.722;2024-01-30T01:58:54;101927.81;;;0.23;61.18
6853;BME280;3465;42.144;24.722;2024-01-30T02:01:20;101927.78;;;0.20;61.05
6853;BME280;3465;42.144;24.722;2024-01-30T02:03:46;101935.59;;;0.31;60.84
6853;BME280;3465;42.144;24.722;2024-01-30T02:06:13;101938.31;;;0.40;60.35
6853;BME280;3465;42.144;24.722;2024-01-30T02:08:39;101924.72;;;0.42;60.30
6853;BME280;3465;42.144;24.722;2024-01-30T02:11:05;101941.56;;;0.31;61.61
6853;BME280;3465;42.144;24.722;2024-01-30T02:13:30;101935.47;;;0.20;61.83
6853;BME280;3465;42.144;24.722;2024-01-30T02:15:56;101941.47;;;0.24;61.51
6853;BME280;3465;42.144;24.722;2024-01-30T02:18:22;101948.22;;;0.20;62.13
6853;BME280;3465;42.144;24.722;2024-01-30T02:20:48;101938.00;;;0.20;62.30
6853;BME280;3465;42.144;24.722;2024-01-30T02:23:15;101944.59;;;0.06;62.96
6853;BME280;3465;42.144;24.722;2024-01-30T02:25:42;101947.09;;;0.03;63.01
6853;BME280;3465;42.144;24.722;2024-01-30T02:28:14;101950.94;;;-0.22;64.02
6853;BME280;3465;42.144;24.722;2024-01-30T02:30:42;101956.09;;;-0.19;64.19
6853;BME280;3465;42.144;24.722;2024-01-30T02:33:08;101949.34;;;-0.15;64.13
6853;BME280;3465;42.144;24.722;2024-01-30T02:35:33;101958.63;;;-0.20;64.19
6853;BME280;3465;42.144;24.722;2024-01-30T02:37:59;101954.34;;;-0.21;64.03
6853;BME280;3465;42.144;24.722;2024-01-30T02:40:25;101961.03;;;-0.28;64.03
6853;BME280;3465;42.144;24.722;2024-01-30T02:42:50;101959.38;;;-0.26;63.72
6853;BME280;3465;42.144;24.722;2024-01-30T02:45:16;101956.78;;;-0.27;63.69
6853;BME280;3465;42.144;24.722;2024-01-30T02:47:42;101957.63;;;-0.28;63.90
6853;BME280;3465;42.144;24.722;2024-01-30T02:50:07;101951.47;;;-0.39;63.94
6853;BME280;3465;42.144;24.722;2024-01-30T02:52:33;101959.00;;;-0.47;64.65
6853;BME280;3465;42.144;24.722;2024-01-30T02:54:59;101964.81;;;-0.54;64.87
6853;BME280;3465;42.144;24.722;2024-01-30T02:57:24;101961.69;;;-0.38;64.12
6853;BME280;3465;42.144;24.722;2024-01-30T02:59:50;101962.69;;;-0.31;64.02
6853;BME280;3465;42.144;24.722;2024-01-30T03:02:15;101967.22;;;-0.15;63.24
6853;BME280;3465;42.144;24.722;2024-01-30T03:04:41;101960.19;;;-0.28;64.18
6853;BME280;3465;42.144;24.722;2024-01-30T03:07:07;101966.25;;;-0.22;63.67
6853;BME280;3465;42.144;24.722;2024-01-30T03:09:33;101961.88;;;-0.29;64.38
6853;BME280;3465;42.144;24.722;2024-01-30T03:11:58;101964.56;;;-0.21;63.72
6853;BME280;3465;42.144;24.722;2024-01-30T03:14:24;101962.06;;;-0.18;63.59
6853;BME280;3465;42.144;24.722;2024-01-30T03:16:49;101964.47;;;-0.27;63.81
6853;BME280;3465;42.144;24.722;2024-01-30T03:19:15;101965.50;;;-0.16;63.41
6853;BME280;3465;42.144;24.722;2024-01-30T03:21:40;101955.19;;;-0.22;63.06
6853;BME280;3465;42.144;24.722;2024-01-30T03:24:06;101966.09;;;-0.31;64.11
6853;BME280;3465;42.144;24.722;2024-01-30T03:26:31;101959.53;;;-0.17;63.88
6853;BME280;3465;42.144;24.722;2024-01-30T03:28:57;101948.16;;;-0.34;64.43
6853;BME280;3465;42.144;24.722;2024-01-30T03:31:22;101953.88;;;-0.48;64.67
6853;BME280;3465;42.144;24.722;2024-01-30T03:33:48;101959.44;;;-0.67;65.76
6853;BME280;3465;42.144;24.722;2024-01-30T03:36:15;101966.47;;;-0.56;65.42
6853;BME280;3465;42.144;24.722;2024-01-30T03:38:40;101965.72;;;-0.95;67.04
6853;BME280;3465;42.144;24.722;2024-01-30T03:41:09;101965.16;;;-1.21;67.77
6853;BME280;3465;42.144;24.722;2024-01-30T03:43:35;101964.84;;;-0.96;66.53
6853;BME280;3465;42.144;24.722;2024-01-30T03:46:01;101959.22;;;-1.20;67.84
6853;BME280;3465;42.144;24.722;2024-01-30T03:48:27;101957.06;;;-1.40;68.71
6853;BME280;3465;42.144;24.722;2024-01-30T03:50:52;101958.69;;;-1.44;68.81
6853;BME280;3465;42.144;24.722;2024-01-30T03:53:18;101962.75;;;-1.52;69.60
6853;BME280;3465;42.144;24.722;2024-01-30T03:55:43;101956.50;;;-1.29;68.71
6853;BME280;3465;42.144;24.722;2024-01-30T03:58:09;101951.59;;;-1.20;68.30
6853;BME280;3465;42.144;24.722;2024-01-30T04:00:34;101957.06;;;-1.02;67.72
6853;BME280;3465;42.144;24.722;2024-01-30T04:03:00;101958.19;;;-0.88;67.02
6853;BME280;3465;42.144;24.722;2024-01-30T04:05:26;101959.22;;;-0.79;66.83
6853;BME280;3465;42.144;24.722;2024-01-30T04:07:51;101970.56;;;-1.07;67.53
6853;BME280;3465;42.144;24.722;2024-01-30T04:10:17;101968.75;;;-1.13;67.70
6853;BME280;3465;42.144;24.722;2024-01-30T04:12:42;101966.13;;;-1.14;67.99
6853;BME280;3465;42.144;24.722;2024-01-30T04:15:08;101967.75;;;-1.19;68.01
6853;BME280;3465;42.144;24.722;2024-01-30T04:17:34;101971.16;;;-1.19;68.38
6853;BME280;3465;42.144;24.722;2024-01-30T04:19:59;101961.78;;;-1.20;67.89
6853;BME280;3465;42.144;24.722;2024-01-30T04:22:25;101959.59;;;-1.03;67.96
6853;BME280;3465;42.144;24.722;2024-01-30T04:24:50;101959.59;;;-1.03;67.56
6853;BME280;3465;42.144;24.722;2024-01-30T04:27:16;101964.59;;;-1.08;67.34
6853;BME280;3465;42.144;24.722;2024-01-30T04:29:41;101962.19;;;-1.00;67.61
6853;BME280;3465;42.144;24.722;2024-01-30T04:32:07;101963.31;;;-0.88;67.25
6853;BME280;3465;42.144;24.722;2024-01-30T04:34:32;101956.81;;;-0.72;66.63
6853;BME280;3465;42.144;24.722;2024-01-30T04:36:58;101965.22;;;-0.76;66.99
6853;BME280;3465;42.144;24.722;2024-01-30T04:39:23;101970.72;;;-1.00;68.19
6853;BME280;3465;42.144;24.722;2024-01-30T04:41:48;101983.31;;;-1.07;68.71
6853;BME280;3465;42.144;24.722;2024-01-30T04:44:14;101979.16;;;-1.02;68.85
6853;BME280;3465;42.144;24.722;2024-01-30T04:46:40;101959.59;;;-1.03;68.04
6853;BME280;3465;42.144;24.722;2024-01-30T04:49:05;101991.59;;;-0.75;67.70
6853;BME280;3465;42.144;24.722;2024-01-30T04:51:33;101999.47;;;-0.66;67.48
6853;BME280;3465;42.144;24.722;2024-01-30T04:53:58;101997.94;;;-0.57;66.96
6853;BME280;3465;42.144;24.722;2024-01-30T04:56:24;101980.06;;;-0.57;66.89
6853;BME280;3465;42.144;24.722;2024-01-30T04:58:49;101996.44;;;-0.46;66.82
6853;BME280;3465;42.144;24.722;2024-01-30T05:01:15;101990.72;;;-0.34;66.52
6853;BME280;3465;42.144;24.722;2024-01-30T05:03:41;101991.56;;;-0.34;66.58
6853;BME280;3465;42.144;24.722;2024-01-30T05:06:07;101992.66;;;-0.21;66.39
6853;BME280;3465;42.144;24.722;2024-01-30T05:08:32;101987.53;;;-0.21;65.78
6853;BME280;3465;42.144;24.722;2024-01-30T05:11:00;101992.53;;;-0.27;66.00
6853;BME280;3465;42.144;24.722;2024-01-30T05:13:26;101998.66;;;-0.18;65.79
6853;BME280;3465;42.144;24.722;2024-01-30T05:15:51;101990.41;;;-0.05;65.56
6853;BME280;3465;42.144;24.722;2024-01-30T05:18:16;101992.00;;;-0.10;65.70
6853;BME280;3465;42.144;24.722;2024-01-30T05:20:42;101988.72;;;-0.03;65.73
6853;BME280;3465;42.144;24.722;2024-01-30T05:23:07;101995.69;;;0.06;65.36
6853;BME280;3465;42.144;24.722;2024-01-30T05:25:33;101988.13;;;0.12;65.47
6853;BME280;3465;42.144;24.722;2024-01-30T05:27:58;101989.94;;;0.21;64.51
6853;BME280;3465;42.144;24.722;2024-01-30T05:30:24;101993.97;;;0.05;65.40
6853;BME280;3465;42.144;24.722;2024-01-30T05:32:49;101970.66;;;-0.13;65.40
6853;BME280;3465;42.144;24.722;2024-01-30T05:35:15;101991.88;;;-0.17;66.38
6853;BME280;3465;42.144;24.722;2024-01-30T05:37:42;101993.53;;;-0.19;66.51
6853;BME280;3465;42.144;24.722;2024-01-30T05:40:07;102000.06;;;-0.35;67.18
6853;BME280;3465;42.144;24.722;2024-01-30T05:42:33;101997.75;;;-0.23;67.17
6853;BME280;3465;42.144;24.722;2024-01-30T05:44:58;102005.38;;;-0.24;67.38
6853;BME280;3465;42.144;24.722;2024-01-30T05:47:24;101996.06;;;-0.22;67.25
6853;BME280;3465;42.144;24.722;2024-01-30T05:49:49;101986.16;;;-0.04;67.03
6853;BME280;3465;42.144;24.722;2024-01-30T05:52:15;101997.50;;;0.13;66.43
6853;BME280;3465;42.144;24.722;2024-01-30T05:54:41;101992.50;;;0.21;66.42
6853;BME280;3465;42.144;24.722;2024-01-30T05:57:07;101995.84;;;0.15;66.69
6853;BME280;3465;42.144;24.722;2024-01-30T05:59:32;101992.56;;;0.24;66.63
6853;BME280;3465;42.144;24.722;2024-01-30T06:01:57;101986.66;;;0.26;66.24
6853;BME280;3465;42.144;24.722;2024-01-30T06:04:23;101990.06;;;0.27;66.31
6853;BME280;3465;42.144;24.722;2024-01-30T06:06:49;101999.75;;;0.46;65.78
6853;BME280;3465;42.144;24.722;2024-01-30T06:09:14;101990.09;;;0.28;66.30
6853;BME280;3465;42.144;24.722;2024-01-30T06:11:39;101992.78;;;0.36;65.41
6853;BME280;3465;42.144;24.722;2024-01-30T06:14:05;101996.53;;;0.59;64.91
6853;BME280;3465;42.144;24.722;2024-01-30T06:16:30;102005.13;;;0.64;64.43
6853;BME280;3465;42.144;24.722;2024-01-30T06:18:56;101969.50;;;0.19;65.20
6853;BME280;3465;42.144;24.722;2024-01-30T06:21:23;102012.59;;;0.50;64.90
6853;BME280;3465;42.144;24.722;2024-01-30T06:23:48;102008.41;;;0.55;65.36
6853;BME280;3465;42.144;24.722;2024-01-30T06:26:14;102007.59;;;0.56;64.87
6853;BME280;3465;42.144;24.722;2024-01-30T06:28:39;102015.56;;;0.77;65.45
6853;BME280;3465;42.144;24.722;2024-01-30T06:31:05;102013.00;;;0.77;65.63
6853;BME280;3465;42.144;24.722;2024-01-30T06:33:30;101994.03;;;0.62;65.10
6853;BME280;3465;42.144;24.722;2024-01-30T06:35:56;102014.78;;;0.83;65.08
6853;BME280;3465;42.144;24.722;2024-01-30T06:38:21;102013.06;;;0.80;64.86
6853;BME280;3465;42.144;24.722;2024-01-30T06:40:47;102018.81;;;0.66;65.41
6853;BME280;3465;42.144;24.722;2024-01-30T06:43:12;102012.47;;;0.43;66.38
6853;BME280;3465;42.144;24.722;2024-01-30T06:45:38;102018.72;;;0.60;65.37
6853;BME280;3465;42.144;24.722;2024-01-30T06:48:03;102015.19;;;0.52;65.58
6853;BME280;3465;42.144;24.722;2024-01-30T06:50:29;102013.53;;;0.57;65.77
6853;BME280;3465;42.144;24.722;2024-01-30T06:52:54;102005.13;;;0.64;65.22
6853;BME280;3465;42.144;24.722;2024-01-30T06:55:20;102011.22;;;0.73;64.30
6853;BME280;3465;42.144;24.722;2024-01-30T06:57:45;102010.25;;;0.64;65.10
6853;BME280;3465;42.144;24.722;2024-01-30T07:00:11;102017.13;;;0.68;64.92
6853;BME280;3465;42.144;24.722;2024-01-30T07:02:37;102010.97;;;0.57;65.13
6853;BME280;3465;42.144;24.722;2024-01-30T07:05:02;102024.72;;;0.63;65.01
6853;BME280;3465;42.144;24.722;2024-01-30T07:07:28;102012.81;;;0.65;64.66
6853;BME280;3465;42.144;24.722;2024-01-30T07:09:54;102026.50;;;0.69;64.93
6853;BME280;3465;42.144;24.722;2024-01-30T07:12:24;102021.44;;;0.70;65.08
6853;BME280;3465;42.144;24.722;2024-01-30T07:14:51;102030.09;;;0.81;64.73
6853;BME280;3465;42.144;24.722;2024-01-30T07:17:17;102027.53;;;0.80;64.65
6853;BME280;3465;42.144;24.722;2024-01-30T07:19:43;102007.97;;;0.83;63.92
6853;BME280;3465;42.144;24.722;2024-01-30T07:22:08;102018.28;;;0.90;63.71
6853;BME280;3465;42.144;24.722;2024-01-30T07:24:34;102015.81;;;0.96;63.42
6853;BME280;3465;42.144;24.722;2024-01-30T07:27:00;102014.13;;;0.96;63.19
6853;BME280;3465;42.144;24.722;2024-01-30T07:29:25;102020.34;;;1.15;62.83
6853;BME280;3465;42.144;24.722;2024-01-30T07:31:51;102022.06;;;1.16;62.46
6853;BME280;3465;42.144;24.722;2024-01-30T07:34:17;102020.25;;;1.09;63.34
6853;BME280;3465;42.144;24.722;2024-01-30T07:36:43;102028.13;;;1.22;62.47
6853;BME280;3465;42.144;24.722;2024-01-30T07:39:08;102030.66;;;1.21;62.49
6853;BME280;3465;42.144;24.722;2024-01-30T07:41:35;102024.63;;;1.17;62.21
6853;BME280;3465;42.144;24.722;2024-01-30T07:44:00;102029.22;;;1.42;62.17
6853;BME280;3465;42.144;24.722;2024-01-30T07:46:26;102034.47;;;1.53;61.79
6853;BME280;3465;42.144;24.722;2024-01-30T07:48:51;102037.91;;;1.56;61.59
6853;BME280;3465;42.144;24.722;2024-01-30T07:51:17;102029.50;;;1.68;61.07
6853;BME280;3465;42.144;24.722;2024-01-30T07:53:42;102036.44;;;1.77;60.46
6853;BME280;3465;42.144;24.722;2024-01-30T07:56:08;102021.94;;;1.79;60.54
6853;BME280;3465;42.144;24.722;2024-01-30T07:58:33;102016.94;;;1.91;59.85
6853;BME280;3465;42.144;24.722;2024-01-30T08:00:59;102011.69;;;1.79;59.90
6853;BME280;3465;42.144;24.722;2024-01-30T08:03:25;102017.75;;;1.87;59.53
6853;BME280;3465;42.144;24.722;2024-01-30T08:05:51;102027.00;;;1.73;60.24
6853;BME280;3465;42.144;24.722;2024-01-30T08:08:17;102018.63;;;1.87;60.08
6853;BME280;3465;42.144;24.722;2024-01-30T08:10:42;102022.69;;;1.70;59.99
6853;BME280;3465;42.144;24.722;2024-01-30T08:13:08;102022.88;;;1.88;59.27
6853;BME280;3465;42.144;24.722;2024-01-30T08:15:34;102006.78;;;2.01;57.50
6853;BME280;3465;42.144;24.722;2024-01-30T08:18:00;102011.94;;;2.04;57.52
6853;BME280;3465;42.144;24.722;2024-01-30T08:20:25;102023.09;;;2.09;56.32
6853;BME280;3465;42.144;24.722;2024-01-30T08:22:51;102012.16;;;2.30;56.88
6853;BME280;3465;42.144;24.722;2024-01-30T08:25:17;102007.94;;;2.38;55.93
6853;BME280;3465;42.144;24.722;2024-01-30T08:27:42;102020.84;;;2.48;54.84
6853;BME280;3465;42.144;24.722;2024-01-30T08:30:08;102018.34;;;2.51;55.17
6853;BME280;3465;42.144;24.722;2024-01-30T08:32:34;102016.72;;;2.69;54.61
6853;BME280;3465;42.144;24.722;2024-01-30T08:35:00;102013.38;;;2.79;54.03
6853;BME280;3465;42.144;24.722;2024-01-30T08:37:29;102015.09;;;2.83;53.82
6853;BME280;3465;42.144;24.722;2024-01-30T08:39:55;102016.84;;;2.87;54.08
6853;BME280;3465;42.144;24.722;2024-01-30T08:42:20;102016.09;;;3.07;52.62
6853;BME280;3465;42.144;24.722;2024-01-30T08:44:51;102012.69;;;3.11;52.22
6853;BME280;3465;42.144;24.722;2024-01-30T08:47:17;102008.41;;;3.10;52.28
6853;BME280;3465;42.144;24.722;2024-01-30T08:49:44;102015.31;;;3.22;51.77
6853;BME280;3465;42.144;24.722;2024-01-30T08:52:10;102008.50;;;3.27;51.39
6853;BME280;3465;42.144;24.722;2024-01-30T08:54:36;102016.25;;;3.37;51.22
6853;BME280;3465;42.144;24.722;2024-01-30T08:57:01;102017.09;;;3.33;51.29
6853;BME280;3465;42.144;24.722;2024-01-30T08:59:27;102011.84;;;3.08;51.09
6853;BME280;3465;42.144;24.722;2024-01-30T09:01:53;102012.63;;;3.02;50.28
6853;BME280;3465;42.144;24.722;2024-01-30T09:04:21;102005.84;;;3.07;51.67
6853;BME280;3465;42.144;24.722;2024-01-30T09:06:47;102011.06;;;3.25;50.46
6853;BME280;3465;42.144;24.722;2024-01-30T09:09:13;102006.00;;;3.45;50.49
6853;BME280;3465;42.144;24.722;2024-01-30T09:11:39;102006.00;;;3.53;49.64
6853;BME280;3465;42.144;24.722;2024-01-30T09:14:05;102000.00;;;3.49;50.31
6853;BME280;3465;42.144;24.722;2024-01-30T09:16:30;101994.03;;;3.58;49.80
6853;BME280;3465;42.144;24.722;2024-01-30T09:18:56;102000.91;;;3.62;49.41
6853;BME280;3465;42.144;24.722;2024-01-30T09:21:21;101994.94;;;3.79;49.26
6853;BME280;3465;42.144;24.722;2024-01-30T09:23:47;101990.66;;;3.77;49.06
6853;BME280;3465;42.144;24.722;2024-01-30T09:26:12;101988.91;;;3.58;48.95
6853;BME280;3465;42.144;24.722;2024-01-30T09:28:38;101994.88;;;3.51;49.68
6853;BME280;3465;42.144;24.722;2024-01-30T09:31:04;101993.16;;;3.48;49.51
6853;BME280;3465;42.144;24.722;2024-01-30T09:33:29;101991.34;;;3.21;50.19
6853;BME280;3465;42.144;24.722;2024-01-30T09:35:55;101980.25;;;3.30;50.17
6853;BME280;3465;42.144;24.722;2024-01-30T09:38:20;101979.31;;;3.07;50.98
6853;BME280;3465;42.144;24.722;2024-01-30T09:40:53;101977.66;;;3.22;50.87
6853;BME280;3465;42.144;24.722;2024-01-30T09:43:22;101974.16;;;3.07;50.93
6853;BME280;3465;42.144;24.722;2024-01-30T09:45:50;101964.66;;;2.92;51.76
6853;BME280;3465;42.144;24.722;2024-01-30T09:48:15;101958.81;;;3.19;51.42
6853;BME280;3465;42.144;24.722;2024-01-30T09:50:41;101964.00;;;3.37;50.49
6853;BME280;3465;42.144;24.722;2024-01-30T09:53:08;101953.72;;;3.38;50.69
6853;BME280;3465;42.144;24.722;2024-01-30T09:55:35;101954.59;;;3.39;50.64
6853;BME280;3465;42.144;24.722;2024-01-30T09:58:01;101952.91;;;3.53;49.84
6853;BME280;3465;42.144;24.722;2024-01-30T10:00:27;101949.50;;;3.65;50.09
6853;BME280;3465;42.144;24.722;2024-01-30T10:02:53;101948.66;;;3.67;50.36
6853;BME280;3465;42.144;24.722;2024-01-30T10:05:19;101944.41;;;3.78;49.72
6853;BME280;3465;42.144;24.722;2024-01-30T10:07:56;101953.78;;;3.55;49.63
6853;BME280;3465;42.144;24.722;2024-01-30T10:10:25;101950.38;;;3.64;49.91
6853;BME280;3465;42.144;24.722;2024-01-30T10:12:50;101935.81;;;3.87;49.66
6853;BME280;3465;42.144;24.722;2024-01-30T10:15:17;101947.81;;;3.83;48.37
6853;BME280;3465;42.144;24.722;2024-01-30T10:17:47;101946.09;;;3.66;48.92
6853;BME280;3465;42.144;24.722;2024-01-30T10:20:13;101946.97;;;3.86;49.46
6853;BME280;3465;42.144;24.722;2024-01-30T10:22:40;101944.41;;;4.10;48.43
6853;BME280;3465;42.144;24.722;2024-01-30T10:25:09;101940.13;;;3.97;47.36
6853;BME280;3465;42.144;24.722;2024-01-30T10:27:35;101944.41;;;4.17;47.20
6853;BME280;3465;42.144;24.722;2024-01-30T10:30:00;101941.81;;;4.23;46.46
6853;BME280;3465;42.144;24.722;2024-01-30T10:32:27;101939.25;;;4.33;45.79
6853;BME280;3465;42.144;24.722;2024-01-30T10:34:52;101946.94;;;4.42;45.18
6853;BME280;3465;42.144;24.722;2024-01-30T10:37:18;101944.31;;;4.66;44.07
6853;BME280;3465;42.144;24.722;2024-01-30T10:39:46;101946.09;;;4.46;44.35
6853;BME280;3465;42.144;24.722;2024-01-30T10:42:18;101941.00;;;4.24;45.88
6853;BME280;3465;42.144;24.722;2024-01-30T10:47:30;101945.25;;;4.33;44.39
6853;BME280;3465;42.144;24.722;2024-01-30T10:49:56;101933.25;;;4.29;45.28
6853;BME280;3465;42.144;24.722;2024-01-30T10:52:23;101931.50;;;4.51;44.32
6853;BME280;3465;42.144;24.722;2024-01-30T10:54:54;101931.44;;;4.78;43.35
6853;BME280;3465;42.144;24.722;2024-01-30T10:57:20;101922.88;;;4.59;43.73
6853;BME280;3465;42.144;24.722;2024-01-30T10:59:48;101918.56;;;4.81;43.67
6853;BME280;3465;42.144;24.722;2024-01-30T11:02:14;101916.75;;;4.98;44.12
6853;BME280;3465;42.144;24.722;2024-01-30T11:04:41;101920.09;;;5.20;43.32
6853;BME280;3465;42.144;24.722;2024-01-30T11:07:16;101916.63;;;5.27;42.75
6853;BME280;3465;42.144;24.722;2024-01-30T11:10:02;101911.44;;;5.34;42.13
6853;BME280;3465;42.144;24.722;2024-01-30T11:12:30;101915.75;;;5.28;42.00
6853;BME280;3465;42.144;24.722;2024-01-30T11:15:02;101903.84;;;6.30;41.04
6853;BME280;3465;42.144;24.722;2024-01-30T11:18:00;101896.63;;;10.91;31.68
6853;BME280;3465;42.144;24.722;2024-01-30T11:20:25;101898.22;;;13.03;27.88
6853;BME280;3465;42.144;24.722;2024-01-30T11:22:52;101883.16;;;15.15;24.88
6853;BME280;3465;42.144;24.722;2024-01-30T11:25:20;101892.44;;;15.76;22.91
6853;BME280;3465;42.144;24.722;2024-01-30T11:27:46;101885.69;;;15.35;22.21
6853;BME280;3465;42.144;24.722;2024-01-30T11:30:40;101883.69;;;16.12;22.43
6853;BME280;3465;42.144;24.722;2024-01-30T11:33:09;101878.00;;;16.36;21.16
6853;BME280;3465;42.144;24.722;2024-01-30T11:35:37;101871.81;;;16.71;20.48
6853;BME280;3465;42.144;24.722;2024-01-30T11:38:04;101866.50;;;18.96;17.87
6853;BME280;3465;42.144;24.722;2024-01-30T11:40:31;101868.03;;;19.68;17.64
6853;BME280;3465;42.144;24.722;2024-01-30T11:42:59;101860.78;;;20.48;17.03
6853;BME280;3465;42.144;24.722;2024-01-30T11:45:26;101854.00;;;20.57;16.74
6853;BME280;3465;42.144;24.722;2024-01-30T11:47:52;101850.69;;;21.27;15.79
6853;BME280;3465;42.144;24.722;2024-01-30T11:50:18;101848.75;;;21.42;15.76
6853;BME280;3465;42.144;24.722;2024-01-30T11:52:44;101843.94;;;21.23;15.76
6853;BME280;3465;42.144;24.722;2024-01-30T11:55:10;101835.28;;;21.21;15.91
6853;BME280;3465;42.144;24.722;2024-01-30T11:57:36;101819.97;;;21.84;15.38
6853;BME280;3465;42.144;24.722;2024-01-30T12:00:05;101818.88;;;22.33;14.71
6853;BME280;3465;42.144;24.722;2024-01-30T12:02:39;101826.47;;;20.23;15.93
6853;BME280;3465;42.144;24.722;2024-01-30T12:05:07;101814.34;;;20.33;16.76
6853;BME280;3465;42.144;24.722;2024-01-30T12:07:33;101805.63;;;20.18;16.26
6853;BME280;3465;42.144;24.722;2024-01-30T12:09:59;101820.56;;;19.14;16.64
6853;BME280;3465;42.144;24.722;2024-01-30T12:12:26;101811.13;;;19.24;17.04
6853;BME280;3465;42.144;24.722;2024-01-30T12:14:52;101807.88;;;19.48;17.14
6853;BME280;3465;42.144;24.722;2024-01-30T12:17:44;101798.50;;;19.03;17.50
6853;BME280;3465;42.144;24.722;2024-01-30T12:22:44;101779.34;;;19.67;16.47
6853;BME280;3465;42.144;24.722;2024-01-30T12:25:13;101784.56;;;18.60;16.97
6853;BME280;3465;42.144;24.722;2024-01-30T12:27:41;101786.13;;;17.17;18.48
6853;BME280;3465;42.144;24.722;2024-01-30T12:30:08;101778.25;;;17.17;19.09
6853;BME280;3465;42.144;24.722;2024-01-30T12:32:37;101773.31;;;17.42;18.44
6853;BME280;3465;42.144;24.722;2024-01-30T12:35:07;101774.22;;;15.99;20.22
6853;BME280;3465;42.144;24.722;2024-01-30T12:37:34;101777.84;;;16.30;20.47
6853;BME280;3465;42.144;24.722;2024-01-30T12:39:59;101777.66;;;16.00;21.32
6853;BME280;3465;42.144;24.722;2024-01-30T12:42:27;101781.59;;;16.41;20.89
6853;BME280;3465;42.144;24.722;2024-01-30T12:44:52;101773.78;;;16.57;20.70
6853;BME280;3465;42.144;24.722;2024-01-30T12:47:18;101783.94;;;15.80;20.30
6853;BME280;3465;42.144;24.722;2024-01-30T12:49:44;101765.75;;;16.75;20.14
6853;BME280;3465;42.144;24.722;2024-01-30T12:52:11;101760.78;;;18.05;18.63
6853;BME280;3465;42.144;24.722;2024-01-30T12:54:37;101770.41;;;18.89;18.06
6853;BME280;3465;42.144;24.722;2024-01-30T12:57:03;101765.22;;;18.05;17.83
6853;BME280;3465;42.144;24.722;2024-01-30T12:59:28;101776.16;;;15.09;21.53
6853;BME280;3465;42.144;24.722;2024-01-30T13:01:54;101767.66;;;13.49;23.38
6853;BME280;3465;42.144;24.722;2024-01-30T13:04:19;101761.47;;;12.19;25.13
6853;BME280;3465;42.144;24.722;2024-01-30T13:06:45;101782.78;;;11.02;27.23
6853;BME280;3465;42.144;24.722;2024-01-30T13:09:11;101775.97;;;9.06;31.14